Airfield :
LOGIN :

Register | Disclaimer

   EN    FR    IT 

 










Legend :    VFR   Marginal VFR   IFR   Intensive IFR   Very Intensive IFR
Visi :
Ceiling :
>= 8 km
>= 3000ft
5 to 8 km
1000 to 3000 ft
1500m to 5 km
500 to 1000 ft
800 to 1500m
200 to 500 ft
< 800m
< 200 ft
Symbols :   Thunderstorms  Fog  Heavy snow  Heavy precipitations  Wind > 20 kt
SIGMETs :     Misc.  Thunderstorms  Icing  Turbulence  Mountain Waves  Volcanic Ashes







- Airport Elevation : 74 ft
- IATA code : NDZ


ETMN - Cuxhaven Nordholz Sea AB

CURRENT METAR :
  • 192020Z 25005KT 9999 SCT020 BKN050 OVC070 12/10 Q1017 RESHRA BLU

EXPIRED METARs :
  • 192015Z 26005KT 9999 FEW015 SCT025 OVC070 12/10 Q1017 RESHRA BLU
  • 192002Z 27005KT 8000 SHRA FEW015 BKN024 OVC050 12/10 Q1017 WHT
  • 191945Z 27008KT 8000 -SHRA SCT022TCU OVC040 12/11 Q1017 RESHRA BLU
  • 191920Z 28004KT 6000 +SHRA BKN022TCU OVC040 12/11 Q1017 WHT
  • 191850Z 23004KT 9999 FEW020 BKN045 11/10 Q1017 BLU FCST CANCEL
  • 191820Z 28009KT 9999 -SHRA SCT020TCU BKN045 12/10 Q1017 RESHRA BLU BLU
  • 191749Z 28011G23KT 6000 -SHRA BKN020TCU SCT040 12/10 Q1017 WHT BLU TEMPO GRN
  • 191720Z 27005KT 9999 FEW015 SCT050 BKN080 12/10 Q1016 BLU BLU TEMPO GRN

TAF AMD TAF ETMN
Valid from the 19 at 17:00 until the 20 at 02:00 UTC


191835Z 1917/2002 27007KT 9999 NSW FEW020 SCT070 BKN180
TEMPO 1917/1918 28012G25KT 4000 SHRA SCT010 BKN020CB
BECMG 1921/1923 26008KT 8000 -RA BKN015 BKN050 OVC100
TEMPO 1922/2002 29012KT 3500 RADZ BKN008 OVC050 CANCEL 1850
No reported NOTAMs for that airfield.



MET'MAP, your aeronautical weather chart ! - Copyright ORBIFLY December 2007 - Disclaimer

ORBIFLY MET'MAP TEAM :

Programming & Development : Alexandra Zaïnal
Concept & Development : Baudouin d'Aumeries
Co-Development & Prog : Marc-Olivier Méhu
Technical & hardware support : Manuel Goepfert

Contact : metmap@orbifly.com




SOURCES & CREDITS :

   NOAA